createdAt,value
2018-12-26T00:01:13.613Z,8.40
2018-12-26T00:03:45.313Z,8.80
2018-12-26T00:06:18.928Z,9.03
2018-12-26T00:08:52.331Z,8.67
2018-12-26T00:11:26.297Z,9.73
2018-12-26T00:13:59.447Z,7.90
2018-12-26T00:16:33.416Z,10.53
2018-12-26T00:19:06.586Z,8.40
2018-12-26T00:21:40.475Z,14.20
2018-12-26T00:24:13.432Z,8.60
2018-12-26T00:26:48.501Z,9.13
2018-12-26T00:29:22.348Z,10.60
2018-12-26T00:31:54.301Z,15.43
2018-12-26T00:34:26.796Z,8.40
2018-12-26T00:36:59.392Z,11.60
2018-12-26T00:39:32.375Z,8.83
2018-12-26T00:42:05.274Z,8.67
2018-12-26T00:44:37.415Z,8.73
2018-12-26T00:47:10.267Z,9.17
2018-12-26T00:49:45.389Z,9.13
2018-12-26T00:52:18.457Z,9.13
2018-12-26T00:54:54.013Z,11.10
2018-12-26T00:57:26.494Z,9.83
2018-12-26T00:59:59.493Z,9.30
2018-12-26T01:02:32.404Z,10.00
2018-12-26T01:05:04.828Z,10.50
2018-12-26T01:07:38.048Z,11.50
2018-12-26T01:10:11.743Z,9.67
2018-12-26T01:12:44.664Z,9.90
2018-12-26T01:15:16.611Z,8.88
2018-12-26T01:17:48.571Z,11.40
2018-12-26T01:20:23.178Z,11.30
2018-12-26T01:22:56.708Z,9.85
2018-12-26T01:25:29.659Z,12.83
2018-12-26T01:28:03.661Z,9.70
2018-12-26T01:30:38.626Z,10.23
2018-12-26T01:33:10.256Z,10.70
2018-12-26T01:35:43.705Z,20.30
2018-12-26T01:38:17.675Z,12.23
2018-12-26T01:40:51.628Z,11.17
2018-12-26T01:43:24.632Z,11.70
2018-12-26T01:45:58.819Z,11.67
2018-12-26T01:48:32.806Z,9.83
2018-12-26T01:51:06.706Z,12.05
2018-12-26T01:53:37.976Z,10.50
2018-12-26T01:56:09.637Z,10.77
2018-12-26T01:58:43.810Z,9.07
2018-12-26T02:01:16.860Z,10.85
2018-12-26T02:03:48.894Z,10.40
2018-12-26T02:06:22.809Z,11.67
2018-12-26T02:08:56.882Z,10.93
2018-12-26T02:11:29.795Z,9.60
2018-12-26T02:14:03.750Z,10.80
2018-12-26T02:16:39.473Z,9.50
2018-12-26T02:19:10.814Z,9.77
2018-12-26T02:21:43.478Z,10.63
2018-12-26T02:24:17.006Z,11.27
2018-12-26T02:26:48.862Z,9.70
2018-12-26T02:29:22.993Z,9.77
2018-12-26T02:31:56.016Z,10.10
2018-12-26T02:34:29.868Z,9.83
2018-12-26T02:37:04.557Z,10.20
2018-12-26T02:39:37.036Z,10.90
2018-12-26T02:42:11.573Z,11.83
2018-12-26T02:44:43.908Z,10.65
2018-12-26T02:47:16.269Z,9.87
2018-12-26T02:49:47.979Z,9.93
2018-12-26T02:52:22.103Z,9.80
2018-12-26T02:54:55.967Z,9.90
2018-12-26T02:57:28.079Z,10.55
2018-12-26T03:00:01.825Z,9.43
2018-12-26T03:02:33.960Z,9.45
2018-12-26T03:05:07.306Z,9.83
2018-12-26T03:07:42.729Z,9.60
2018-12-26T03:10:15.825Z,9.03
2018-12-26T03:12:49.084Z,10.63
2018-12-26T03:15:22.513Z,11.43
2018-12-26T03:17:56.262Z,11.50
2018-12-26T03:20:30.273Z,12.70
2018-12-26T03:23:03.077Z,9.87
2018-12-26T03:25:35.209Z,10.90
2018-12-26T03:28:08.121Z,10.67
2018-12-26T03:30:39.471Z,9.60
2018-12-26T03:33:10.913Z,11.20
2018-12-26T03:35:43.208Z,9.50
2018-12-26T03:38:18.759Z,11.20
2018-12-26T03:40:51.851Z,10.60
2018-12-26T03:43:24.415Z,11.30
2018-12-26T03:45:58.604Z,9.17
2018-12-26T03:48:31.546Z,9.93
2018-12-26T03:51:05.944Z,9.63
2018-12-26T03:53:39.332Z,14.80
2018-12-26T03:56:10.688Z,10.50
2018-12-26T03:58:44.318Z,9.93
2018-12-26T04:01:16.360Z,10.23
2018-12-26T04:03:50.469Z,9.60
2018-12-26T04:06:23.385Z,15.20
2018-12-26T04:08:57.260Z,12.90
2018-12-26T04:11:31.616Z,9.33
2018-12-26T04:14:05.550Z,10.60
2018-12-26T04:16:39.217Z,8.30
2018-12-26T04:19:10.732Z,9.53
2018-12-26T04:21:43.467Z,9.27
2018-12-26T04:24:17.592Z,9.77
2018-12-26T04:26:51.552Z,9.50
2018-12-26T04:29:24.446Z,8.37
2018-12-26T04:31:58.411Z,8.03
2018-12-26T04:34:29.697Z,9.23
2018-12-26T04:37:02.432Z,9.07
2018-12-26T04:39:36.527Z,8.87
2018-12-26T04:42:09.436Z,7.58
2018-12-26T04:44:43.623Z,10.70
2018-12-26T04:47:16.501Z,8.60
2018-12-26T04:49:47.799Z,9.30
2018-12-26T04:52:22.996Z,8.30
2018-12-26T04:54:56.383Z,8.17
2018-12-26T04:57:28.512Z,8.90
2018-12-26T05:00:01.477Z,9.40
2018-12-26T05:02:34.459Z,8.20
2018-12-26T05:05:06.478Z,8.27
2018-12-26T05:07:39.613Z,8.37
2018-12-26T05:10:10.923Z,9.20
2018-12-26T05:12:43.482Z,12.18
2018-12-26T05:15:16.615Z,8.17
2018-12-26T05:17:49.725Z,8.80
2018-12-26T05:20:23.775Z,9.20
2018-12-26T05:22:57.087Z,11.03
2018-12-26T05:25:29.714Z,8.60
2018-12-26T05:28:05.294Z,10.43
2018-12-26T05:30:39.663Z,9.70
2018-12-26T05:33:11.047Z,9.67
2018-12-26T05:35:44.719Z,9.87
2018-12-26T05:38:21.965Z,10.40
2018-12-26T05:40:55.665Z,9.73
2018-12-26T05:43:28.682Z,9.33
2018-12-26T05:46:02.660Z,8.47
2018-12-26T05:48:35.707Z,9.80
2018-12-26T05:51:09.809Z,17.63
2018-12-26T05:53:42.876Z,9.63
2018-12-26T05:56:18.906Z,10.17
2018-12-26T05:58:53.695Z,9.48
2018-12-26T06:01:28.950Z,10.60
2018-12-26T06:04:03.068Z,11.10
2018-12-26T06:06:36.998Z,9.43
2018-12-26T06:09:10.761Z,10.37
2018-12-26T06:11:43.888Z,9.83
2018-12-26T06:14:17.855Z,10.27
2018-12-26T06:16:50.990Z,11.73
2018-12-26T06:19:22.301Z,9.90
2018-12-26T06:21:55.712Z,10.50
2018-12-26T06:24:28.987Z,11.30
2018-12-26T06:27:03.118Z,15.03
2018-12-26T06:29:37.153Z,41.53
2018-12-26T06:32:09.998Z,12.67
2018-12-26T06:34:47.458Z,12.57
2018-12-26T06:37:20.980Z,11.43
2018-12-26T06:39:55.171Z,12.83
2018-12-26T06:42:28.175Z,12.50
2018-12-26T06:45:02.914Z,12.07
2018-12-26T06:47:38.348Z,12.80
2018-12-26T06:50:10.456Z,13.00
2018-12-26T06:52:44.177Z,13.88
2018-12-26T06:55:19.019Z,14.03
2018-12-26T06:57:51.162Z,11.50
2018-12-26T07:00:25.088Z,10.28
2018-12-26T07:02:58.115Z,11.33
2018-12-26T07:05:32.307Z,11.17
2018-12-26T07:08:04.987Z,10.63
2018-12-26T07:10:38.038Z,12.63
2018-12-26T07:13:10.012Z,13.22
2018-12-26T07:15:42.998Z,15.07
2018-12-26T07:18:16.989Z,13.67
2018-12-26T07:20:48.340Z,24.13
2018-12-26T07:23:24.159Z,11.80
2018-12-26T07:25:58.756Z,12.13
2018-12-26T07:28:32.330Z,12.67
2018-12-26T07:31:07.369Z,17.40
2018-12-26T07:33:39.382Z,10.77
2018-12-26T07:36:11.553Z,11.93
2018-12-26T07:38:45.258Z,14.13
2018-12-26T07:41:17.532Z,13.57
2018-12-26T07:43:51.213Z,15.90
2018-12-26T07:46:25.448Z,12.03
2018-12-26T07:48:59.513Z,13.77
2018-12-26T07:51:33.447Z,20.10
2018-12-26T07:54:05.762Z,14.60
2018-12-26T07:56:42.653Z,16.20
2018-12-26T07:59:16.020Z,14.33
2018-12-26T08:01:49.725Z,11.67
2018-12-26T08:04:23.477Z,19.03
2018-12-26T08:06:55.186Z,15.23
2018-12-26T08:09:28.270Z,14.47
2018-12-26T08:12:03.353Z,15.00
2018-12-26T08:14:38.706Z,15.08
2018-12-26T08:17:12.551Z,17.63
2018-12-26T08:19:46.664Z,15.30
2018-12-26T08:22:20.674Z,16.07
2018-12-26T08:24:52.212Z,14.40
2018-12-26T08:27:24.602Z,15.87
2018-12-26T08:29:59.791Z,15.40
2018-12-26T08:32:32.389Z,15.30
2018-12-26T08:35:07.778Z,14.20
2018-12-26T08:37:39.510Z,15.57
2018-12-26T08:40:11.184Z,14.70
2018-12-26T08:42:43.546Z,13.40
2018-12-26T08:45:17.686Z,13.47
2018-12-26T08:47:50.464Z,15.77
2018-12-26T08:50:22.002Z,16.00
2018-12-26T08:52:55.595Z,16.37
2018-12-26T08:55:27.850Z,22.05
2018-12-26T08:58:00.683Z,13.30
2018-12-26T09:00:34.740Z,14.97
2018-12-26T09:03:06.784Z,16.10
2018-12-26T09:05:39.859Z,13.40
2018-12-26T09:08:11.294Z,11.87
2018-12-26T09:10:47.527Z,13.53
2018-12-26T09:13:21.725Z,15.83
2018-12-26T09:15:53.141Z,13.53
2018-12-26T09:18:25.156Z,15.80
2018-12-26T09:20:56.637Z,12.23
2018-12-26T09:23:30.562Z,14.80
2018-12-26T09:26:05.101Z,15.17
2018-12-26T09:28:43.835Z,14.10
2018-12-26T09:31:13.768Z,13.50
2018-12-26T09:33:47.814Z,14.03
2018-12-26T09:36:19.227Z,13.30
2018-12-26T09:38:52.679Z,13.80
2018-12-26T09:41:26.867Z,20.00
2018-12-26T09:44:00.096Z,29.60
2018-12-26T09:46:33.983Z,12.07
2018-12-26T09:49:05.922Z,14.70
2018-12-26T09:51:37.832Z,14.70
2018-12-26T09:54:10.107Z,14.30
2018-12-26T09:56:42.864Z,12.90
2018-12-26T09:59:18.477Z,13.73
2018-12-26T10:01:54.385Z,14.80
2018-12-26T10:04:27.271Z,20.03
2018-12-26T10:06:58.576Z,13.80
2018-12-26T10:09:31.878Z,19.20
2018-12-26T10:12:09.797Z,13.57
2018-12-26T10:14:42.149Z,14.57
2018-12-26T10:17:13.876Z,17.13
2018-12-26T10:19:45.994Z,14.40
2018-12-26T10:22:19.997Z,17.70
2018-12-26T10:24:52.891Z,14.07
2018-12-26T10:27:25.826Z,23.40
2018-12-26T10:29:58.171Z,14.60
2018-12-26T10:32:31.146Z,18.50
2018-12-26T10:35:11.994Z,10.43
2018-12-26T10:37:44.231Z,11.53
2018-12-26T10:40:17.162Z,12.68
2018-12-26T10:42:50.883Z,11.20
2018-12-26T10:45:22.973Z,17.65
2018-12-26T10:47:56.501Z,16.63
2018-12-26T10:50:33.096Z,15.60
2018-12-26T10:53:07.432Z,11.80
2018-12-26T10:55:41.070Z,13.47
2018-12-26T10:58:15.305Z,13.60
2018-12-26T11:00:48.466Z,15.13
2018-12-26T11:03:22.443Z,11.97
2018-12-26T11:05:56.101Z,13.33
2018-12-26T11:08:31.754Z,15.57
2018-12-26T11:11:04.132Z,18.00
2018-12-26T11:13:37.276Z,18.50
2018-12-26T11:16:11.060Z,14.93
2018-12-26T11:18:45.880Z,11.00
2018-12-26T11:21:17.312Z,12.35
2018-12-26T11:23:50.808Z,11.33
2018-12-26T11:26:23.034Z,12.00
2018-12-26T11:28:56.440Z,12.67
2018-12-26T11:31:29.326Z,17.50
2018-12-26T11:34:03.312Z,12.78
2018-12-26T11:36:37.361Z,23.10
2018-12-26T11:39:10.564Z,16.23
2018-12-26T11:41:44.420Z,13.23
2018-12-26T11:44:17.443Z,39.50
2018-12-26T11:46:49.515Z,12.50
2018-12-26T11:49:23.694Z,14.87
2018-12-26T11:51:56.205Z,12.63
2018-12-26T11:54:30.552Z,13.43
2018-12-26T11:57:03.391Z,11.57
2018-12-26T11:59:39.053Z,11.73
2018-12-26T12:02:11.053Z,14.20
2018-12-26T12:04:42.428Z,11.80
2018-12-26T12:07:14.425Z,13.63
2018-12-26T12:09:46.695Z,11.50
2018-12-26T12:12:18.025Z,11.13
2018-12-26T12:14:51.571Z,12.50
2018-12-26T12:17:25.577Z,12.07
2018-12-26T12:19:58.577Z,11.57
2018-12-26T12:22:32.575Z,11.60
2018-12-26T12:25:05.559Z,11.70
2018-12-26T12:27:39.541Z,11.47
2018-12-26T12:30:11.391Z,25.67
2018-12-26T12:32:43.526Z,11.07
2018-12-26T12:35:17.729Z,11.10
2018-12-26T12:37:50.516Z,15.60
2018-12-26T12:40:23.535Z,12.27
2018-12-26T12:42:56.520Z,11.63
2018-12-26T12:45:28.579Z,11.10
2018-12-26T12:48:00.026Z,12.00
2018-12-26T12:50:31.655Z,10.37
2018-12-26T12:53:03.824Z,11.00
2018-12-26T12:55:37.092Z,11.23
2018-12-26T12:58:12.638Z,12.40
2018-12-26T13:00:44.279Z,10.90
2018-12-26T13:03:19.494Z,13.00
2018-12-26T13:05:51.932Z,13.17
2018-12-26T13:08:25.853Z,12.70
2018-12-26T13:10:58.682Z,9.70
2018-12-26T13:13:31.855Z,12.90
2018-12-26T13:16:05.844Z,11.37
2018-12-26T13:18:38.013Z,12.40
2018-12-26T13:21:12.933Z,11.80
2018-12-26T13:23:45.564Z,9.37
2018-12-26T13:26:18.239Z,9.83
2018-12-26T13:28:51.979Z,10.97
2018-12-26T13:31:26.371Z,16.20
2018-12-26T13:33:59.058Z,10.10
2018-12-26T13:36:32.746Z,10.83
2018-12-26T13:39:07.744Z,10.23
2018-12-26T13:41:39.929Z,10.30
2018-12-26T13:44:11.762Z,13.10
2018-12-26T13:46:43.854Z,11.03
2018-12-26T13:49:17.973Z,9.80
2018-12-26T13:51:50.934Z,12.70
2018-12-26T13:54:26.629Z,10.63
2018-12-26T13:56:58.823Z,11.03
2018-12-26T13:59:32.885Z,12.57
2018-12-26T14:02:07.564Z,10.50
2018-12-26T14:04:39.885Z,10.73
2018-12-26T14:07:11.446Z,12.00
2018-12-26T14:09:44.094Z,14.70
2018-12-26T14:12:18.050Z,10.40
2018-12-26T14:14:50.993Z,11.43
2018-12-26T14:17:23.154Z,13.30
2018-12-26T14:19:57.180Z,12.17
2018-12-26T14:22:31.076Z,11.77
2018-12-26T14:25:07.593Z,13.80
2018-12-26T14:27:39.002Z,13.07
2018-12-26T14:30:11.675Z,12.33
2018-12-26T14:32:45.910Z,12.97
2018-12-26T14:35:18.059Z,13.43
2018-12-26T14:37:50.054Z,11.40
2018-12-26T14:40:23.146Z,14.37
2018-12-26T14:42:57.154Z,12.03
2018-12-26T14:45:31.113Z,10.57
2018-12-26T14:48:05.978Z,11.97
2018-12-26T14:50:38.250Z,16.48
2018-12-26T14:53:11.366Z,14.27
2018-12-26T14:55:45.352Z,14.63
2018-12-26T14:58:20.493Z,18.60
2018-12-26T15:00:53.365Z,15.37
2018-12-26T15:03:27.788Z,12.60
2018-12-26T15:06:00.383Z,16.60
2018-12-26T15:08:34.765Z,13.70
2018-12-26T15:11:08.219Z,16.00
2018-12-26T15:13:41.406Z,13.37
2018-12-26T15:16:14.225Z,17.77
2018-12-26T15:18:47.588Z,16.30
2018-12-26T15:21:21.504Z,14.10
2018-12-26T15:23:53.254Z,13.53
2018-12-26T15:26:24.808Z,14.43
2018-12-26T15:28:58.320Z,15.43
2018-12-26T15:31:30.386Z,14.63
2018-12-26T15:34:02.285Z,13.23
2018-12-26T15:36:37.925Z,13.33
2018-12-26T15:39:11.745Z,15.73
2018-12-26T15:41:43.336Z,13.08
2018-12-26T15:44:17.546Z,13.00
2018-12-26T15:46:50.618Z,16.97
2018-12-26T15:49:24.498Z,12.50
2018-12-26T15:51:58.599Z,17.17
2018-12-26T15:54:31.872Z,15.50
2018-12-26T15:57:04.048Z,21.45
2018-12-26T15:59:36.922Z,19.07
2018-12-26T16:02:10.676Z,14.20
2018-12-26T16:04:43.563Z,14.87
2018-12-26T16:07:17.715Z,15.23
2018-12-26T16:09:52.881Z,17.80
2018-12-26T16:12:24.611Z,18.85
2018-12-26T16:14:58.584Z,16.80
2018-12-26T16:17:33.043Z,17.60
2018-12-26T16:20:08.394Z,22.37
2018-12-26T16:22:40.353Z,21.50
2018-12-26T16:25:11.924Z,24.20
2018-12-26T16:27:44.801Z,18.70
2018-12-26T16:30:18.720Z,24.23
2018-12-26T16:32:56.599Z,23.60
2018-12-26T16:35:29.568Z,35.30
2018-12-26T16:38:02.811Z,20.57
2018-12-26T16:40:40.269Z,20.50
2018-12-26T16:43:13.846Z,24.93
2018-12-26T16:45:53.232Z,24.70
2018-12-26T16:48:25.881Z,23.80
2018-12-26T16:51:01.250Z,22.23
2018-12-26T16:53:34.017Z,27.73
2018-12-26T16:56:07.820Z,25.17
2018-12-26T16:58:43.979Z,23.33
2018-12-26T17:01:24.198Z,24.27
2018-12-26T17:04:08.260Z,24.10
2018-12-26T17:06:43.179Z,28.83
2018-12-26T17:09:16.001Z,22.90
2018-12-26T17:11:49.811Z,24.37
2018-12-26T17:14:27.079Z,33.87
2018-12-26T17:17:00.798Z,29.73
2018-12-26T17:19:34.904Z,25.20
2018-12-26T17:22:09.030Z,22.17
2018-12-26T17:24:42.122Z,28.70
2018-12-26T17:27:16.618Z,24.17
2018-12-26T17:29:51.731Z,24.93
2018-12-26T17:32:24.189Z,28.13
2018-12-26T17:34:57.943Z,23.30
2018-12-26T17:37:31.815Z,23.70
2018-12-26T17:40:09.320Z,43.43
2018-12-26T17:42:42.197Z,36.53
2018-12-26T17:45:22.953Z,26.13
2018-12-26T17:47:56.050Z,22.27
2018-12-26T17:50:51.562Z,24.60
2018-12-26T17:54:14.578Z,23.63
2018-12-26T17:56:56.252Z,22.10
2018-12-26T17:59:48.767Z,24.80
2018-12-26T18:02:25.924Z,23.60
2018-12-26T18:04:58.285Z,25.43
2018-12-26T18:07:30.410Z,24.82
2018-12-26T18:10:06.029Z,23.63
2018-12-26T18:12:39.235Z,23.22
2018-12-26T18:15:16.092Z,22.43
2018-12-26T18:17:48.605Z,24.07
2018-12-26T18:20:21.225Z,28.53
2018-12-26T18:22:57.223Z,22.53
2018-12-26T18:25:30.428Z,23.10
2018-12-26T18:28:04.147Z,25.90
2018-12-26T18:30:37.048Z,26.40
2018-12-26T18:33:10.458Z,24.47
2018-12-26T18:35:49.638Z,29.47
2018-12-26T18:38:24.674Z,24.33
2018-12-26T18:41:02.381Z,34.13
2018-12-26T18:43:39.020Z,31.43
2018-12-26T18:46:13.025Z,22.43
2018-12-26T18:48:46.701Z,28.60
2018-12-26T18:51:23.981Z,20.20
2018-12-26T18:54:02.787Z,25.13
2018-12-26T18:56:38.496Z,21.60
2018-12-26T18:59:13.070Z,25.10
2018-12-26T19:01:50.501Z,21.60
2018-12-26T19:04:23.626Z,20.70
2018-12-26T19:06:55.632Z,20.87
2018-12-26T19:09:29.805Z,32.20
2018-12-26T19:12:05.436Z,21.93
2018-12-26T19:14:37.468Z,29.90
2018-12-26T19:17:10.401Z,24.87
2018-12-26T19:19:45.711Z,24.47
2018-12-26T19:22:18.766Z,21.83
2018-12-26T19:24:56.210Z,22.70
2018-12-26T19:27:30.612Z,24.82
2018-12-26T19:30:11.588Z,23.37
2018-12-26T19:32:54.871Z,23.73
2018-12-26T19:35:30.463Z,24.17
2018-12-26T19:38:03.055Z,22.50
2018-12-26T19:40:38.555Z,21.63
2018-12-26T19:43:16.048Z,25.00
2018-12-26T19:45:50.920Z,22.20
2018-12-26T19:48:23.530Z,23.20
2018-12-26T19:51:08.289Z,24.70
2018-12-26T19:53:43.194Z,23.13
2018-12-26T19:56:16.824Z,24.80
2018-12-26T19:58:51.373Z,27.25
2018-12-26T20:04:35.776Z,23.83
2018-12-26T20:07:12.294Z,24.50
2018-12-26T20:09:46.008Z,29.12
2018-12-26T20:12:20.046Z,25.87
2018-12-26T20:14:53.715Z,25.73
2018-12-26T20:17:31.313Z,26.43
2018-12-26T20:20:07.460Z,24.03
2018-12-26T20:22:43.641Z,25.33
2018-12-26T20:25:16.267Z,26.87
2018-12-26T20:27:50.938Z,28.97
2018-12-26T20:30:25.262Z,28.30
2018-12-26T20:33:02.354Z,26.17
2018-12-26T20:35:34.023Z,26.37
2018-12-26T20:38:07.660Z,25.43
2018-12-26T20:40:41.576Z,30.20
2018-12-26T20:43:15.310Z,27.17
2018-12-26T20:45:47.076Z,25.17
2018-12-26T20:48:23.096Z,29.13
2018-12-26T20:50:56.740Z,26.13
2018-12-26T20:53:29.826Z,24.57
2018-12-26T20:56:05.641Z,26.53
2018-12-26T20:58:39.109Z,30.17
2018-12-26T21:01:10.523Z,31.40
2018-12-26T21:03:43.974Z,28.90
2018-12-26T21:06:18.483Z,31.53
2018-12-26T21:08:50.719Z,29.00
2018-12-26T21:11:25.056Z,30.13
2018-12-26T21:14:01.435Z,33.87
2018-12-26T21:16:36.956Z,28.90
2018-12-26T21:19:10.791Z,25.97
2018-12-26T21:21:43.114Z,27.03
2018-12-26T21:24:15.500Z,29.80
2018-12-26T21:26:51.166Z,23.90
2018-12-26T21:29:24.623Z,29.43
2018-12-26T21:31:59.378Z,25.10
2018-12-26T21:34:33.629Z,27.90
2018-12-26T21:37:06.908Z,28.07
2018-12-26T21:39:40.925Z,24.70
2018-12-26T21:42:17.311Z,28.92
2018-12-26T21:44:51.246Z,24.43
2018-12-26T21:47:25.081Z,24.17
2018-12-26T21:49:59.731Z,24.07
2018-12-26T21:52:32.042Z,23.67
2018-12-26T21:55:06.685Z,29.10
2018-12-26T21:57:39.190Z,26.77
2018-12-26T22:00:10.910Z,25.27
2018-12-26T22:02:44.319Z,26.27
2018-12-26T22:05:18.900Z,26.60
2018-12-26T22:07:52.211Z,21.83
2018-12-26T22:10:43.747Z,30.47
2018-12-26T22:13:47.122Z,30.60
2018-12-26T22:16:29.040Z,28.63
2018-12-26T22:19:02.078Z,28.07
2018-12-26T22:21:37.507Z,27.00
2018-12-26T22:24:10.492Z,27.13
2018-12-26T22:26:51.129Z,24.40
2018-12-26T22:29:29.191Z,25.10
2018-12-26T22:32:07.477Z,28.60
2018-12-26T22:34:45.713Z,34.43
2018-12-26T22:37:20.833Z,28.30
2018-12-26T22:39:57.686Z,39.15
2018-12-26T22:42:38.468Z,32.40
2018-12-26T22:45:14.180Z,32.80
2018-12-26T22:47:46.139Z,37.70
2018-12-26T22:50:18.653Z,34.53
2018-12-26T22:52:52.666Z,35.67
2018-12-26T22:55:25.083Z,36.03
2018-12-26T22:58:04.989Z,33.53
2018-12-26T23:00:44.920Z,35.70
2018-12-26T23:03:20.522Z,32.15
2018-12-26T23:05:52.499Z,34.63
2018-12-26T23:08:25.504Z,39.00
2018-12-26T23:11:04.550Z,33.13
2018-12-26T23:13:39.155Z,36.43
2018-12-26T23:16:12.791Z,36.65
2018-12-26T23:18:53.092Z,31.60
2018-12-26T23:21:27.105Z,32.23
2018-12-26T23:24:02.841Z,36.95
2018-12-26T23:26:36.647Z,34.73
2018-12-26T23:29:14.107Z,35.17
2018-12-26T23:31:49.995Z,33.00
2018-12-26T23:34:23.626Z,34.80
2018-12-26T23:37:00.309Z,35.13
2018-12-26T23:39:34.729Z,35.92
2018-12-26T23:42:06.695Z,48.33
2018-12-26T23:44:40.538Z,39.67
2018-12-26T23:47:12.163Z,35.52
2018-12-26T23:49:48.619Z,34.80
2018-12-26T23:52:22.634Z,34.83
2018-12-26T23:54:58.387Z,32.20
2018-12-26T23:57:33.368Z,34.73
